createdAt,value
2023-03-02T00:00:02.099Z,17.20
2023-03-02T00:03:06.700Z,13.97
2023-03-02T00:06:11.421Z,15.23
2023-03-02T00:09:14.503Z,17.03
2023-03-02T00:12:17.649Z,19.67
2023-03-02T00:15:21.049Z,17.67
2023-03-02T00:18:24.143Z,15.33
2023-03-02T00:21:28.706Z,16.00
2023-03-02T00:24:32.330Z,19.23
2023-03-02T00:27:36.639Z,17.67
2023-03-02T00:30:40.236Z,16.63
2023-03-02T00:33:43.336Z,16.37
2023-03-02T00:36:50.355Z,14.33
2023-03-02T00:39:53.742Z,17.73
2023-03-02T00:42:56.860Z,16.97
2023-03-02T00:46:00.041Z,16.90
2023-03-02T00:49:03.204Z,15.93
2023-03-02T00:52:07.816Z,15.77
2023-03-02T00:55:11.292Z,15.30
2023-03-02T00:58:14.295Z,16.07
2023-03-02T01:01:18.752Z,14.60
2023-03-02T01:04:22.007Z,16.03
2023-03-02T01:07:28.907Z,16.00
2023-03-02T01:10:32.892Z,15.87
2023-03-02T01:13:36.309Z,16.93
2023-03-02T01:16:39.514Z,17.83
2023-03-02T01:19:43.688Z,16.37
2023-03-02T01:22:48.449Z,16.07
2023-03-02T01:25:52.131Z,16.37
2023-03-02T01:28:55.642Z,15.50
2023-03-02T01:31:58.903Z,17.50
2023-03-02T01:35:02.086Z,15.00
2023-03-02T01:38:06.864Z,13.20
2023-03-02T01:45:55.009Z,14.47
2023-03-02T01:49:01.718Z,13.40
2023-03-02T01:52:05.230Z,14.80
2023-03-02T01:55:13.755Z,16.53
2023-03-02T01:58:18.488Z,13.27
2023-03-02T02:01:22.035Z,14.20
2023-03-02T02:04:28.540Z,14.37
2023-03-02T02:07:31.906Z,14.67
2023-03-02T02:10:37.132Z,15.73
2023-03-02T02:13:40.273Z,15.50
2023-03-02T02:16:43.578Z,14.30
2023-03-02T02:20:00.515Z,14.83
2023-03-02T02:23:18.501Z,20.60
2023-03-02T02:26:27.480Z,15.80
2023-03-02T02:29:33.221Z,15.80
2023-03-02T02:32:43.408Z,14.87
2023-03-02T02:35:48.304Z,15.00
2023-03-02T02:38:55.372Z,14.97
2023-03-02T02:42:04.179Z,14.97
2023-03-02T02:45:18.537Z,15.70
2023-03-02T02:48:24.556Z,15.97
2023-03-02T02:51:30.110Z,17.00
2023-03-02T02:54:35.416Z,16.97
2023-03-02T02:57:41.516Z,16.77
2023-03-02T03:00:44.823Z,16.17
2023-03-02T03:03:52.319Z,19.27
2023-03-02T03:06:57.763Z,18.30
2023-03-02T03:10:06.197Z,22.70
2023-03-02T03:13:12.321Z,18.27
2023-03-02T03:16:16.781Z,20.83
2023-03-02T03:19:23.082Z,17.50
2023-03-02T03:22:26.049Z,17.70
2023-03-02T03:25:29.132Z,19.43
2023-03-02T03:28:35.678Z,19.10
2023-03-02T03:31:38.861Z,19.23
2023-03-02T03:34:42.370Z,17.70
2023-03-02T03:37:46.050Z,17.13
2023-03-02T03:40:49.228Z,19.23
2023-03-02T03:43:54.304Z,17.40
2023-03-02T03:46:57.749Z,16.93
2023-03-02T03:50:00.891Z,22.97
2023-03-02T03:53:04.199Z,20.47
2023-03-02T03:56:07.780Z,18.40
2023-03-02T03:59:16.218Z,22.10
2023-03-02T04:02:19.404Z,21.20
2023-03-02T04:05:22.970Z,18.17
2023-03-02T04:08:25.978Z,20.47
2023-03-02T04:11:31.070Z,19.43
2023-03-02T04:14:35.930Z,22.13
2023-03-02T04:17:39.039Z,25.47
2023-03-02T04:20:42.137Z,21.43
2023-03-02T04:23:46.793Z,19.30
2023-03-02T04:26:50.661Z,20.73
2023-03-02T04:29:55.437Z,20.40
2023-03-02T04:32:58.909Z,22.80
2023-03-02T04:36:02.725Z,19.77
2023-03-02T04:39:06.961Z,21.77
2023-03-02T04:42:09.976Z,23.90
2023-03-02T04:45:15.359Z,23.00
2023-03-02T04:48:18.466Z,25.13
2023-03-02T04:51:24.334Z,29.13
2023-03-02T04:54:28.264Z,26.43
2023-03-02T04:57:31.344Z,29.67
2023-03-02T05:00:36.209Z,26.73
2023-03-02T05:03:42.629Z,29.53
2023-03-02T05:06:46.051Z,26.37
2023-03-02T05:09:49.240Z,26.97
2023-03-02T05:12:57.829Z,28.97
2023-03-02T05:16:02.600Z,26.10
2023-03-02T05:19:07.807Z,25.37
2023-03-02T05:22:11.240Z,29.47
2023-03-02T05:25:17.725Z,26.93
2023-03-02T05:28:21.611Z,26.90
2023-03-02T05:31:30.293Z,25.87
2023-03-02T05:34:33.446Z,26.57
2023-03-02T05:37:36.492Z,29.57
2023-03-02T05:40:40.127Z,28.60
2023-03-02T05:43:43.392Z,35.67
2023-03-02T05:46:49.463Z,33.83
2023-03-02T05:49:52.515Z,28.10
2023-03-02T05:52:55.523Z,31.53
2023-03-02T05:55:58.627Z,37.40
2023-03-02T05:59:01.702Z,23.93
2023-03-02T06:02:06.172Z,29.10
2023-03-02T06:05:11.681Z,32.73
2023-03-02T06:08:14.630Z,35.97
2023-03-02T06:11:17.601Z,39.70
2023-03-02T06:14:21.778Z,34.87
2023-03-02T06:17:26.930Z,33.13
2023-03-02T06:20:30.032Z,38.00
2023-03-02T06:23:36.069Z,33.10
2023-03-02T06:26:39.096Z,34.17
2023-03-02T06:29:42.243Z,34.77
2023-03-02T06:32:46.778Z,38.23
2023-03-02T06:35:50.305Z,35.60
2023-03-02T06:38:53.489Z,39.97
2023-03-02T06:41:56.790Z,38.37
2023-03-02T06:44:59.997Z,40.93
2023-03-02T06:48:05.003Z,33.13
2023-03-02T06:51:08.325Z,37.40
2023-03-02T06:54:11.386Z,40.17
2023-03-02T06:57:14.386Z,35.20
2023-03-02T07:00:25.833Z,45.10
2023-03-02T07:03:30.471Z,41.33
2023-03-02T07:06:33.506Z,42.47
2023-03-02T07:09:36.889Z,39.27
2023-03-02T07:12:40.131Z,42.90
2023-03-02T07:15:43.124Z,40.73
2023-03-02T07:18:47.582Z,46.63
2023-03-02T07:21:50.502Z,45.23
2023-03-02T07:24:53.475Z,41.53
2023-03-02T07:27:56.540Z,36.40
2023-03-02T07:31:00.867Z,38.37
2023-03-02T07:34:05.328Z,47.30
2023-03-02T07:37:08.429Z,44.37
2023-03-02T07:40:15.125Z,45.03
2023-03-02T07:43:18.350Z,43.40
2023-03-02T07:46:21.326Z,35.67
2023-03-02T07:49:25.853Z,42.83
2023-03-02T07:52:32.577Z,41.83
2023-03-02T07:55:35.619Z,42.67
2023-03-02T07:58:39.322Z,41.90
2023-03-02T08:01:42.309Z,35.30
2023-03-02T08:04:47.083Z,40.73
2023-03-02T08:07:50.021Z,40.60
2023-03-02T08:10:53.008Z,36.67
2023-03-02T08:13:55.980Z,36.00
2023-03-02T08:16:59.023Z,36.90
2023-03-02T08:20:03.867Z,30.90
2023-03-02T08:23:07.039Z,36.23
2023-03-02T08:26:13.178Z,35.50
2023-03-02T08:29:19.857Z,30.57
2023-03-02T08:32:22.919Z,31.83
2023-03-02T08:35:27.560Z,33.67
2023-03-02T08:38:31.668Z,31.60
2023-03-02T08:41:35.605Z,32.83
2023-03-02T08:44:38.932Z,32.97
2023-03-02T08:47:42.024Z,33.33
2023-03-02T08:50:46.331Z,32.67
2023-03-02T08:53:51.305Z,34.70
2023-03-02T08:56:54.338Z,33.23
2023-03-02T08:59:57.792Z,32.60
2023-03-02T09:03:02.259Z,28.40
2023-03-02T09:06:07.048Z,27.63
2023-03-02T09:09:11.161Z,28.43
2023-03-02T09:12:14.184Z,28.60
2023-03-02T09:15:17.394Z,34.50
2023-03-02T09:18:20.742Z,31.17
2023-03-02T09:21:25.505Z,31.43
2023-03-02T09:24:28.780Z,33.27
2023-03-02T09:27:31.797Z,29.63
2023-03-02T09:30:34.864Z,29.30
2023-03-02T09:33:38.911Z,30.37
2023-03-02T09:36:43.324Z,27.53
2023-03-02T09:39:46.668Z,30.37
2023-03-02T09:43:04.960Z,28.33
2023-03-02T09:46:17.396Z,29.07
2023-03-02T09:49:30.581Z,30.57
2023-03-02T09:52:37.657Z,27.77
2023-03-02T09:55:40.811Z,28.57
2023-03-02T09:58:49.278Z,28.97
2023-03-02T10:01:55.561Z,29.20
2023-03-02T10:05:00.724Z,24.47
2023-03-02T10:08:06.212Z,27.77
2023-03-02T10:11:18.040Z,24.33
2023-03-02T10:14:25.994Z,24.40
2023-03-02T10:17:41.116Z,25.13
2023-03-02T10:20:50.405Z,25.43
2023-03-02T10:23:58.223Z,21.93
2023-03-02T10:27:11.394Z,23.33
2023-03-02T10:30:21.250Z,25.33
2023-03-02T10:33:24.515Z,24.37
2023-03-02T10:36:29.516Z,20.17
2023-03-02T10:39:33.895Z,21.57
2023-03-02T10:42:40.266Z,18.30
2023-03-02T10:45:43.331Z,16.63
2023-03-02T10:48:53.578Z,17.07
2023-03-02T10:51:58.421Z,21.90
2023-03-02T10:55:08.109Z,17.87
2023-03-02T10:58:26.442Z,20.93
2023-03-02T11:01:29.878Z,17.60
2023-03-02T11:04:33.092Z,16.33
2023-03-02T11:07:36.422Z,15.93
2023-03-02T11:10:42.690Z,16.87
2023-03-02T11:13:45.732Z,16.40
2023-03-02T11:16:48.851Z,17.37
2023-03-02T11:19:52.587Z,15.00
2023-03-02T11:23:08.228Z,14.73
2023-03-02T11:26:20.573Z,15.10
2023-03-02T11:29:32.229Z,15.23
2023-03-02T11:32:42.968Z,16.40
2023-03-02T11:35:49.134Z,15.07
2023-03-02T11:38:55.434Z,13.60
2023-03-02T11:41:59.890Z,14.73
2023-03-02T11:45:08.683Z,13.93
2023-03-02T11:48:19.898Z,15.13
2023-03-02T11:51:25.562Z,15.17
2023-03-02T11:54:40.234Z,15.30
2023-03-02T11:57:49.643Z,15.80
2023-03-02T12:00:54.940Z,18.50
2023-03-02T12:04:08.820Z,16.20
2023-03-02T12:07:23.013Z,19.27
2023-03-02T12:10:33.678Z,15.47
2023-03-02T12:13:38.967Z,15.23
2023-03-02T12:16:43.166Z,14.67
2023-03-02T12:19:47.106Z,16.27
2023-03-02T12:22:50.296Z,16.53
2023-03-02T12:26:06.382Z,17.50
2023-03-02T12:29:25.390Z,18.47
2023-03-02T12:32:30.476Z,15.17
2023-03-02T12:35:35.412Z,16.57
2023-03-02T12:38:39.656Z,15.83
2023-03-02T12:42:01.761Z,18.73
2023-03-02T12:45:20.752Z,16.37
2023-03-02T12:48:30.010Z,13.77
2023-03-02T12:51:44.513Z,14.80
2023-03-02T12:54:47.920Z,15.47
2023-03-02T12:57:51.938Z,15.30
2023-03-02T13:00:59.294Z,14.90
2023-03-02T13:04:02.622Z,14.00
2023-03-02T13:07:07.035Z,13.70
2023-03-02T13:10:22.825Z,14.80
2023-03-02T13:13:28.382Z,17.63
2023-03-02T13:16:36.744Z,14.70
2023-03-02T13:19:40.280Z,15.13
2023-03-02T13:22:44.908Z,16.67
2023-03-02T13:25:52.997Z,17.10
2023-03-02T13:29:04.307Z,14.10
2023-03-02T13:32:23.602Z,15.10
2023-03-02T13:35:29.120Z,15.50
2023-03-02T13:38:38.704Z,21.43
2023-03-02T13:41:41.968Z,18.27
2023-03-02T13:44:46.334Z,23.57
2023-03-02T13:47:50.864Z,14.30
2023-03-02T13:50:57.588Z,15.67
2023-03-02T13:54:03.422Z,14.80
2023-03-02T13:57:07.518Z,13.80
2023-03-02T14:00:15.291Z,14.30
2023-03-02T14:03:30.915Z,15.90
2023-03-02T14:06:34.160Z,14.57
2023-03-02T14:09:37.378Z,12.50
2023-03-02T14:12:42.532Z,13.90
2023-03-02T14:15:50.175Z,13.40
2023-03-02T14:18:56.275Z,12.60
2023-03-02T14:21:59.220Z,12.73
2023-03-02T14:25:02.379Z,15.87
2023-03-02T14:28:05.894Z,12.50
2023-03-02T14:31:11.151Z,12.97
2023-03-02T14:34:16.174Z,13.87
2023-03-02T14:37:26.234Z,14.10
2023-03-02T14:40:29.505Z,14.03
2023-03-02T14:43:32.590Z,13.37
2023-03-02T14:46:35.599Z,14.23
2023-03-02T14:49:40.683Z,13.77
2023-03-02T14:52:47.799Z,17.23
2023-03-02T14:55:50.782Z,14.77
2023-03-02T14:58:54.368Z,15.57
2023-03-02T15:01:59.250Z,17.13
2023-03-02T15:05:05.990Z,19.23
2023-03-02T15:08:13.148Z,21.17
2023-03-02T15:11:16.196Z,28.97
2023-03-02T15:14:19.191Z,33.90
2023-03-02T15:17:22.168Z,43.77
2023-03-02T15:20:26.636Z,40.97
2023-03-02T15:23:29.733Z,51.00
2023-03-02T15:26:33.104Z,57.13
2023-03-02T15:29:36.087Z,57.50
2023-03-02T15:32:39.538Z,47.27
2023-03-02T15:35:44.398Z,57.80
2023-03-02T15:38:50.228Z,56.20
2023-03-02T15:41:53.793Z,48.83
2023-03-02T15:44:56.779Z,47.53
2023-03-02T15:47:59.755Z,58.97
2023-03-02T15:51:06.572Z,58.17
2023-03-02T15:54:10.849Z,48.80
2023-03-02T15:57:13.878Z,46.13
2023-03-02T16:00:18.479Z,47.57
2023-03-02T16:03:23.633Z,44.20
2023-03-02T16:06:28.547Z,37.97
2023-03-02T16:09:31.935Z,38.63
2023-03-02T16:12:35.005Z,35.67
2023-03-02T16:15:41.050Z,34.67
2023-03-02T16:18:44.001Z,37.27
2023-03-02T16:21:48.797Z,39.47
2023-03-02T16:24:51.847Z,46.00
2023-03-02T16:27:54.874Z,41.90
2023-03-02T16:31:04.764Z,46.07
2023-03-02T16:34:10.016Z,44.70
2023-03-02T16:37:14.412Z,50.13
2023-03-02T16:40:17.817Z,52.40
2023-03-02T16:43:21.944Z,47.23
2023-03-02T16:46:27.554Z,44.57
2023-03-02T16:49:30.646Z,44.10
2023-03-02T16:52:35.055Z,39.27
2023-03-02T16:55:38.089Z,37.03
2023-03-02T16:58:41.639Z,38.57
2023-03-02T17:01:44.779Z,35.97
2023-03-02T17:04:47.756Z,33.87
2023-03-02T17:07:52.676Z,28.43
2023-03-02T17:10:56.121Z,30.30
2023-03-02T17:13:59.218Z,31.97
2023-03-02T17:17:05.013Z,31.07
2023-03-02T17:20:10.050Z,27.13
2023-03-02T17:23:16.247Z,21.07
2023-03-02T17:26:19.270Z,27.50
2023-03-02T17:29:22.809Z,29.27
2023-03-02T17:32:25.987Z,26.90
2023-03-02T17:35:29.046Z,21.20
2023-03-02T17:38:33.400Z,19.73
2023-03-02T17:41:37.641Z,20.00
2023-03-02T17:44:41.113Z,18.07
2023-03-02T17:47:44.514Z,19.70
2023-03-02T17:50:47.468Z,17.33
2023-03-02T17:53:53.386Z,17.83
2023-03-02T17:56:56.410Z,18.57
2023-03-02T17:59:59.471Z,19.97
2023-03-02T18:03:02.480Z,22.47
2023-03-02T18:06:06.306Z,16.10
2023-03-02T18:09:11.457Z,18.30
2023-03-02T18:12:14.532Z,16.80
2023-03-02T18:15:17.616Z,15.97
2023-03-02T18:18:20.778Z,15.77
2023-03-02T18:21:24.221Z,16.60
2023-03-02T18:24:28.644Z,17.57
2023-03-02T18:27:31.803Z,17.23
2023-03-02T18:30:35.084Z,16.37
2023-03-02T18:33:38.421Z,18.27
2023-03-02T18:36:41.671Z,18.13
2023-03-02T18:39:46.172Z,16.07
2023-03-02T18:42:49.611Z,16.63
2023-03-02T18:45:52.811Z,15.03
2023-03-02T18:48:56.826Z,16.23
2023-03-02T18:52:05.673Z,15.97
2023-03-02T18:55:11.686Z,16.30
2023-03-02T18:58:21.953Z,14.73
2023-03-02T19:01:25.076Z,15.27
2023-03-02T19:04:29.380Z,16.27
2023-03-02T19:07:32.663Z,14.53
2023-03-02T19:10:38.507Z,14.03
2023-03-02T19:13:41.763Z,13.73
2023-03-02T19:16:45.063Z,13.43
2023-03-02T19:19:48.131Z,14.37
2023-03-02T19:22:51.208Z,13.23
2023-03-02T19:25:55.684Z,12.47
2023-03-02T19:28:58.748Z,12.17
2023-03-02T19:32:02.552Z,12.60
2023-03-02T19:35:06.404Z,11.27
2023-03-02T19:38:09.776Z,12.90
2023-03-02T19:41:19.907Z,14.73
2023-03-02T19:44:25.691Z,12.00
2023-03-02T19:47:29.696Z,11.77
2023-03-02T19:50:33.549Z,13.57
2023-03-02T19:53:38.819Z,13.53
2023-03-02T19:56:49.703Z,17.57
2023-03-02T19:59:52.813Z,20.50
2023-03-02T20:02:55.881Z,18.40
2023-03-02T20:05:59.692Z,25.93
2023-03-02T20:09:05.824Z,24.23
2023-03-02T20:12:11.698Z,22.63
2023-03-02T20:15:15.158Z,28.90
2023-03-02T20:18:20.687Z,32.63
2023-03-02T20:21:26.186Z,41.17
2023-03-02T20:24:29.296Z,48.03
2023-03-02T20:27:33.859Z,61.83
2023-03-02T20:30:41.016Z,73.77
2023-03-02T20:33:47.135Z,96.97
2023-03-02T20:36:50.252Z,92.80
2023-03-02T20:39:54.311Z,80.67
2023-03-02T20:42:58.846Z,74.87
2023-03-02T20:46:02.046Z,60.70
2023-03-02T20:49:09.529Z,56.00
2023-03-02T20:52:12.938Z,42.37
2023-03-02T20:55:16.470Z,36.13
2023-03-02T20:58:21.595Z,35.63
2023-03-02T21:01:25.283Z,34.57
2023-03-02T21:04:28.825Z,24.07
2023-03-02T21:07:32.778Z,21.03
2023-03-02T21:10:38.517Z,23.53
2023-03-02T21:13:45.829Z,19.17
2023-03-02T21:16:49.038Z,19.67
2023-03-02T21:19:52.244Z,20.30
2023-03-02T21:22:55.619Z,17.53
2023-03-02T21:25:58.752Z,18.23
2023-03-02T21:29:03.666Z,15.57
2023-03-02T21:32:08.299Z,17.07
2023-03-02T21:35:12.898Z,16.13
2023-03-02T21:38:16.081Z,16.37
2023-03-02T21:41:20.100Z,16.27
2023-03-02T21:44:27.756Z,16.57
2023-03-02T21:47:31.183Z,18.73
2023-03-02T21:50:37.013Z,17.73
2023-03-02T21:53:40.278Z,20.70
2023-03-02T21:56:44.473Z,20.37
2023-03-02T21:59:49.504Z,21.73
2023-03-02T22:02:53.039Z,18.97
2023-03-02T22:05:56.145Z,17.97
2023-03-02T22:08:59.742Z,22.87
2023-03-02T22:12:03.076Z,23.10
2023-03-02T22:15:14.557Z,21.50
2023-03-02T22:18:19.358Z,21.97
2023-03-02T22:21:29.996Z,20.80
2023-03-02T22:24:34.615Z,21.27
2023-03-02T22:27:40.271Z,23.73
2023-03-02T22:30:44.834Z,23.83
2023-03-02T22:33:48.481Z,21.80
2023-03-02T22:36:51.732Z,27.93
2023-03-02T22:39:57.197Z,28.50
2023-03-02T22:43:10.981Z,25.07
2023-03-02T22:46:17.579Z,24.00
2023-03-02T22:49:20.668Z,24.93
2023-03-02T22:52:26.182Z,24.70
2023-03-02T22:55:35.645Z,28.97
2023-03-02T22:58:46.402Z,28.40
2023-03-02T23:01:51.415Z,26.83
2023-03-02T23:04:55.547Z,25.27
2023-03-02T23:08:08.970Z,27.73
2023-03-02T23:11:17.651Z,25.97
2023-03-02T23:14:26.804Z,25.70
2023-03-02T23:17:36.969Z,29.17
2023-03-02T23:20:40.158Z,27.50
2023-03-02T23:23:43.230Z,32.77
2023-03-02T23:26:46.539Z,24.60
2023-03-02T23:29:49.590Z,26.83
2023-03-02T23:32:54.105Z,27.30
2023-03-02T23:35:57.409Z,25.63
2023-03-02T23:39:00.641Z,27.43
2023-03-02T23:42:03.797Z,26.73
2023-03-02T23:45:09.105Z,30.20
2023-03-02T23:48:13.777Z,27.13
2023-03-02T23:51:17.090Z,26.53
2023-03-02T23:54:20.215Z,28.47
2023-03-02T23:57:23.268Z,25.37
